Ames, IA (50013)

5:20 AM CST on March 06, 2015 (GMT -0600)
Garden District | Change Station
CLOSE
Current Station
Personal Weather Station
Location: Ames, IA
Elevation: 968 ft
Nearby Weather Stations

Elev 968 ft 42.04 °N, 93.61 °W | Updated 0 second ago

Mostly Cloudy
Mostly Cloudy
16.3 °F
Feels Like 16 °F
N
0.7
Wind Variable Wind from SE
Gusts 3.1 mph

Today
High -- | Low -- °F
--% Chance of Precip.
Yesterday
High -- | Low -- °F
Precip. -- in
6:41 AM 6:10 PM
Full, 100% visible
Pressure 30.25 in
Visibility 10.0 miles
Clouds Mostly Cloudy 10000 ft
Windchill 16 °F
Dew Point 2 °F
Humidity 52%
Rainfall in
Snow Depth Not available.
UV 0 out of 12
Pollen .50 out of 12
Air Quality Not available.
Flu Activity Not available.
METAR KAMW 061053Z AUTO 17007KT 10SM BKN100 M08/M13 A3021 RMK AO2 SLP244 T10781128

More Conditions Fewer Conditions

Pressure 30.25 in
Visibility 10.0 miles
Clouds Mostly Cloudy 10000 ft
Windchill 16 °F
Dew Point 2 °F
Humidity 52%
Rainfall in
Snow Depth Not available.
UV 0 out of 12
Pollen .50 out of 12
Air Quality Not available.
Flu Activity Not available.
METAR KAMW 061053Z AUTO 17007KT 10SM BKN100 M08/M13 A3021 RMK AO2 SLP244 T10781128

More Conditions Fewer Conditions

10-Day Weather Forecast

Almanac

Astronomy

Mar. 06, 2015 Rise Set
Actual Time
Civil Twilight
Nautical Twilight
Astronomical Twilight
Moon
Length of Visible Light
Length of Day
Tomorrow will be .
, % of the Moon is Illuminated

Today's Extremes

State Highs State Lows

Community

WunderPhotos

Upload Photos

1,803,225 photos uploaded!

WunderBlogs® & News

Nearby

Air Quality

  Air Quality AQ Index Pollutant
Not available.

Snow Depth

Station Depth Elevation

Earthquake Activity

City Distance Mag. Time & Date
Minimum magnitude displayed is 2.5.

Coastal Water Temperatures

Place Temperature

Nearby Weather Stations